createdAt,value
2019-05-03T00:04:17.745Z,12.6
2019-05-03T00:09:42.492Z,13.1
2019-05-03T00:15:03.267Z,10
2019-05-03T00:20:26.025Z,10.5
2019-05-03T00:25:49.607Z,12.2
2019-05-03T00:31:12.563Z,12.8
2019-05-03T00:36:35.154Z,13.9
2019-05-03T00:41:58.677Z,13.8
2019-05-03T00:47:23.329Z,15.5
2019-05-03T00:52:46.074Z,10.5
2019-05-03T00:58:11.643Z,12.8
2019-05-03T01:03:33.097Z,13.2
2019-05-03T01:08:55.792Z,11
2019-05-03T01:14:18.482Z,15.3
2019-05-03T01:19:43.086Z,11.9
2019-05-03T01:25:05.740Z,13.6
2019-05-03T01:30:28.454Z,11.5
2019-05-03T01:35:52.132Z,13.9
2019-05-03T01:41:15.816Z,12.4
2019-05-03T01:46:38.469Z,11.7
2019-05-03T01:52:02.332Z,14.3
2019-05-03T01:57:24.803Z,12.7
2019-05-03T02:02:47.502Z,9.9
2019-05-03T02:08:10.137Z,7.3
2019-05-03T02:13:32.789Z,10.4
2019-05-03T02:18:55.493Z,10.5
2019-05-03T02:24:18.820Z,12.3
2019-05-03T02:29:42.167Z,9.8
2019-05-03T02:35:04.798Z,10.3
2019-05-03T02:40:28.163Z,11.4
2019-05-03T02:45:50.816Z,10.2
2019-05-03T02:51:15.577Z,6.8
2019-05-03T02:56:36.159Z,9.4
2019-05-03T03:01:58.864Z,8.3
2019-05-03T03:07:21.521Z,12.2
2019-05-03T03:12:46.530Z,11.1
2019-05-03T03:18:08.816Z,9.5
2019-05-03T03:23:31.503Z,12.1
2019-05-03T03:28:56.282Z,8.1
2019-05-03T03:34:18.591Z,11.1
2019-05-03T03:39:41.197Z,8.3
2019-05-03T03:45:05.997Z,10.3
2019-05-03T03:50:27.493Z,7
2019-05-03T03:55:50.462Z,7.3
2019-05-03T04:01:15.592Z,8.7
2019-05-03T04:06:35.880Z,6.9
2019-05-03T04:11:59.088Z,8
2019-05-03T04:17:21.750Z,9.9
2019-05-03T04:22:46.182Z,8.4
2019-05-03T04:28:08.886Z,10.4
2019-05-03T04:33:31.513Z,7.8
2019-05-03T04:38:56.154Z,11.2
2019-05-03T04:44:17.676Z,7.4
2019-05-03T04:49:40.398Z,9.4
2019-05-03T04:55:03.167Z,8.8
2019-05-03T05:00:26.958Z,8.1
2019-05-03T05:05:49.702Z,12.1
2019-05-03T05:11:12.382Z,8.4
2019-05-03T05:16:39.467Z,9.2
2019-05-03T05:22:02.910Z,7.2
2019-05-03T05:27:25.534Z,7.5
2019-05-03T05:32:46.345Z,5.2
2019-05-03T05:38:08.995Z,7.3
2019-05-03T05:43:31.695Z,5.8
2019-05-03T05:48:55.432Z,9.2
2019-05-03T05:54:17.996Z,8.5
2019-05-03T05:59:40.632Z,7.8
2019-05-03T06:05:04.810Z,10.6
2019-05-03T06:10:25.879Z,7.6
2019-05-03T06:15:49.534Z,7.9
2019-05-03T06:21:12.263Z,9.7
2019-05-03T06:26:34.915Z,8.5
2019-05-03T06:31:58.573Z,7.9
2019-05-03T06:37:21.201Z,8.1
2019-05-03T06:42:52.236Z,8.8
2019-05-03T06:48:09.441Z,8.3
2019-05-03T06:53:32.040Z,6.8
2019-05-03T06:58:55.213Z,6.6
2019-05-03T07:04:17.383Z,8.1
2019-05-03T07:09:39.987Z,9
2019-05-03T07:15:02.614Z,8.9
2019-05-03T07:20:25.590Z,7.2
2019-05-03T07:25:48.049Z,10.9
2019-05-03T07:31:10.708Z,4.7
2019-05-03T07:36:35.522Z,7.9
2019-05-03T07:41:56.990Z,8.3
2019-05-03T07:47:19.677Z,7.5
2019-05-03T07:52:45.086Z,4.2
2019-05-03T07:58:06.073Z,8.4
2019-05-03T08:03:28.735Z,7.4
2019-05-03T08:08:52.177Z,8.3
2019-05-03T08:14:17.570Z,9.1
2019-05-03T08:19:38.395Z,6.9
2019-05-03T08:25:01.063Z,7
2019-05-03T08:30:25.089Z,5.7
2019-05-03T08:35:48.907Z,4.7
2019-05-03T08:41:11.652Z,4.9
2019-05-03T08:46:35.546Z,5.4
2019-05-03T08:51:56.969Z,5
2019-05-03T08:57:19.604Z,4.8
2019-05-03T09:02:42.262Z,4.4
2019-05-03T09:08:05.575Z,5.5
2019-05-03T09:13:28.031Z,6.1
2019-05-03T09:18:50.646Z,5.2
2019-05-03T09:24:15.158Z,5.4
2019-05-03T09:29:43.050Z,5.1
2019-05-03T09:35:00.584Z,5.9
2019-05-03T09:40:24.553Z,2.9
2019-05-03T09:45:45.963Z,5.4
2019-05-03T09:51:08.704Z,8.1
2019-05-03T09:56:31.326Z,3.9
2019-05-03T10:01:55.115Z,4.6
2019-05-03T10:07:17.836Z,3.7
2019-05-03T10:12:40.474Z,4.4
2019-05-03T10:18:10.144Z,3.9
2019-05-03T10:23:27.309Z,4.6
2019-05-03T10:28:50.047Z,3
2019-05-03T10:34:12.664Z,4.9
2019-05-03T10:39:36.190Z,5
2019-05-03T10:44:57.881Z,4.9
2019-05-03T10:50:20.648Z,3.4
2019-05-03T10:55:45.050Z,2.7
2019-05-03T11:01:06.908Z,3.7
2019-05-03T11:06:29.585Z,3.9
2019-05-03T11:11:52.251Z,3.3
2019-05-03T11:17:14.988Z,4
2019-05-03T11:22:37.489Z,4.8
2019-05-03T11:28:00.185Z,4.7
2019-05-03T11:33:24.459Z,3.3
2019-05-03T11:38:45.688Z,3.9
2019-05-03T11:44:08.103Z,2.3
2019-05-03T11:49:30.835Z,3.2
2019-05-03T11:54:55.238Z,3.3
2019-05-03T12:00:17.227Z,3.8
2019-05-03T12:05:39.883Z,3
2019-05-03T12:11:03.046Z,3.7
2019-05-03T12:17:00.492Z,3.4
2019-05-03T12:21:51.473Z,4.4
2019-05-03T12:27:12.679Z,3.6
2019-05-03T12:32:35.297Z,3.9
2019-05-03T12:37:57.922Z,4.1
2019-05-03T12:43:19.522Z,4.7
2019-05-03T12:48:42.286Z,4.5
2019-05-03T12:54:05.546Z,5.1
2019-05-03T12:59:28.189Z,4.1
2019-05-03T13:04:52.070Z,3.7
2019-05-03T13:10:20.292Z,4.4
2019-05-03T13:15:37.058Z,3.1
2019-05-03T13:20:59.687Z,2.4
2019-05-03T13:26:22.555Z,4.3
2019-05-03T13:31:58.044Z,5.9
2019-05-03T13:37:08.991Z,6.6
2019-05-03T13:42:31.633Z,5.5
2019-05-03T13:47:55.519Z,3.4
2019-05-03T13:53:19.869Z,3.5
2019-05-03T13:58:44.432Z,8.2
2019-05-03T14:04:05.296Z,5.4
2019-05-03T14:09:28.486Z,4.5
2019-05-03T14:14:51.082Z,4.7
2019-05-03T14:20:14.924Z,4.6
2019-05-03T14:25:37.345Z,6.4
2019-05-03T14:31:01.651Z,4.4
2019-05-03T14:36:26.292Z,4.7
2019-05-03T14:41:49.955Z,5.6
2019-05-03T14:47:14.751Z,4.1
2019-05-03T14:52:36.822Z,4.7
2019-05-03T14:57:59.539Z,3.5
2019-05-03T15:03:22.134Z,3.9
2019-05-03T15:08:44.798Z,4
2019-05-03T15:14:08.419Z,3.8
2019-05-03T15:19:32.092Z,3
2019-05-03T15:24:54.771Z,3.2
2019-05-03T15:30:17.415Z,3.2
2019-05-03T15:35:40.072Z,4.8
2019-05-03T15:41:05.348Z,6.1
2019-05-03T15:46:26.433Z,4.2
2019-05-03T15:51:49.010Z,6.3
2019-05-03T15:57:11.754Z,4.5
2019-05-03T16:02:35.251Z,4.6
2019-05-03T16:07:57.780Z,3.8
2019-05-03T16:13:20.375Z,6.3
2019-05-03T16:18:44.795Z,4.6
2019-05-03T16:24:05.891Z,3.9
2019-05-03T16:29:29.067Z,5.9
2019-05-03T16:34:51.726Z,6.4
2019-05-03T16:40:16.743Z,4.5
2019-05-03T16:45:37.988Z,4.5
2019-05-03T16:51:00.615Z,6.3
2019-05-03T16:56:24.458Z,5.1
2019-05-03T17:01:45.836Z,5
2019-05-03T17:07:08.499Z,4.9
2019-05-03T17:12:32.095Z,5.7
2019-05-03T17:17:54.765Z,5
2019-05-03T17:23:17.387Z,6
2019-05-03T17:28:40.038Z,4.7
2019-05-03T17:34:02.701Z,6.5
2019-05-03T17:39:25.545Z,4.1
2019-05-03T17:44:47.903Z,4.8
2019-05-03T17:50:10.496Z,6.1
2019-05-03T17:55:35.183Z,7.9
2019-05-03T18:00:56.746Z,4
2019-05-03T18:06:19.430Z,3.4
2019-05-03T18:11:42.220Z,3.8
2019-05-03T18:17:05.684Z,5.7
2019-05-03T18:22:27.597Z,4.6
2019-05-03T18:27:50.268Z,4.9
2019-05-03T18:33:12.919Z,4.5
2019-05-03T18:38:39.195Z,4.7
2019-05-03T18:44:00.988Z,5.2
2019-05-03T18:49:25.166Z,5.9
2019-05-03T18:54:47.816Z,4
2019-05-03T19:00:10.444Z,5.4
2019-05-03T19:05:34.838Z,3.6
2019-05-03T19:10:55.739Z,7.1
2019-05-03T19:16:18.370Z,7.3
2019-05-03T19:21:41.070Z,4.9
2019-05-03T19:27:04.750Z,5.4
2019-05-03T19:32:28.538Z,3.8
2019-05-03T19:37:51.223Z,5
2019-05-03T19:43:15.219Z,4.5
2019-05-03T19:48:37.762Z,6.4
2019-05-03T19:54:00.382Z,5.2
2019-05-03T19:59:23.026Z,3.3
2019-05-03T20:04:57.281Z,4
2019-05-03T20:10:08.645Z,5.3
2019-05-03T20:15:31.243Z,4.2
2019-05-03T20:20:55.283Z,6.1
2019-05-03T20:26:16.453Z,5
2019-05-03T20:31:39.109Z,4
2019-05-03T20:37:01.846Z,6.4
2019-05-03T20:42:25.742Z,7.7
2019-05-03T20:47:48.378Z,6.4
2019-05-03T20:53:11.340Z,3.7
2019-05-03T20:58:35.782Z,6.1
2019-05-03T21:03:57.774Z,7.4
2019-05-03T21:09:20.505Z,6.1
2019-05-03T21:14:45.169Z,4.4
2019-05-03T21:20:05.951Z,7.6
2019-05-03T21:25:28.545Z,4.5
2019-05-03T21:30:51.181Z,6.2
2019-05-03T21:36:15.520Z,8
2019-05-03T21:41:39.042Z,6.7
2019-05-03T21:47:01.711Z,7.6
2019-05-03T21:52:25.323Z,5.9
2019-05-03T21:57:48.666Z,6
2019-05-03T22:03:11.308Z,5.1
2019-05-03T22:08:35.173Z,9.3
2019-05-03T22:13:57.585Z,4.1
2019-05-03T22:19:21.193Z,6.1
2019-05-03T22:24:46.445Z,5.9
2019-05-03T22:30:07.842Z,8
2019-05-03T22:35:30.987Z,6.3
2019-05-03T22:40:55.557Z,5.6
2019-05-03T22:46:18.245Z,8.9
2019-05-03T22:51:40.867Z,8.3
2019-05-03T22:57:04.946Z,9.1
2019-05-03T23:02:27.130Z,6.3
2019-05-03T23:07:49.734Z,7.6
2019-05-03T23:13:12.447Z,10
2019-05-03T23:18:35.171Z,9.5
2019-05-03T23:23:58.554Z,11.9
2019-05-03T23:29:22.177Z,10.4
2019-05-03T23:34:46.377Z,12.3
2019-05-03T23:40:07.478Z,10.1
2019-05-03T23:45:31.012Z,8.9
2019-05-03T23:50:55.248Z,10.5
2019-05-03T23:56:17.907Z,7.8
